sensor_id;sensor_type;location;lat;lon;timestamp;P1;durP1;ratioP1;P2;durP2;ratioP2
33690;SDS011;20026;50.058;18.428;2024-01-06T00:00:11;423.92;;;101.05;;
33690;SDS011;20026;50.058;18.428;2024-01-06T00:02:37;398.70;;;101.45;;
33690;SDS011;20026;50.058;18.428;2024-01-06T00:05:04;489.13;;;115.70;;
33690;SDS011;20026;50.058;18.428;2024-01-06T00:07:30;517.05;;;115.80;;
33690;SDS011;20026;50.058;18.428;2024-01-06T00:09:56;450.63;;;94.85;;
33690;SDS011;20026;50.058;18.428;2024-01-06T00:12:22;483.95;;;92.32;;
33690;SDS011;20026;50.058;18.428;2024-01-06T00:14:48;481.00;;;98.22;;
33690;SDS011;20026;50.058;18.428;2024-01-06T00:17:14;367.52;;;92.45;;
33690;SDS011;20026;50.058;18.428;2024-01-06T00:19:40;526.90;;;91.10;;
33690;SDS011;20026;50.058;18.428;2024-01-06T00:22:06;339.35;;;88.50;;
33690;SDS011;20026;50.058;18.428;2024-01-06T00:24:32;439.50;;;96.05;;
33690;SDS011;20026;50.058;18.428;2024-01-06T00:26:58;429.63;;;109.68;;
33690;SDS011;20026;50.058;18.428;2024-01-06T00:29:24;501.23;;;107.88;;
33690;SDS011;20026;50.058;18.428;2024-01-06T00:31:50;304.35;;;84.72;;
33690;SDS011;20026;50.058;18.428;2024-01-06T00:34:16;336.15;;;68.72;;
33690;SDS011;20026;50.058;18.428;2024-01-06T00:36:42;370.77;;;66.65;;
33690;SDS011;20026;50.058;18.428;2024-01-06T00:39:08;302.33;;;56.05;;
33690;SDS011;20026;50.058;18.428;2024-01-06T00:41:34;246.85;;;60.72;;
33690;SDS011;20026;50.058;18.428;2024-01-06T00:44:00;152.52;;;45.88;;
33690;SDS011;20026;50.058;18.428;2024-01-06T00:46:26;366.70;;;94.18;;
33690;SDS011;20026;50.058;18.428;2024-01-06T00:48:52;248.90;;;70.35;;
33690;SDS011;20026;50.058;18.428;2024-01-06T00:51:18;214.23;;;47.47;;
33690;SDS011;20026;50.058;18.428;2024-01-06T00:53:44;123.53;;;39.92;;
33690;SDS011;20026;50.058;18.428;2024-01-06T00:56:10;141.05;;;40.53;;
33690;SDS011;20026;50.058;18.428;2024-01-06T00:58:36;200.82;;;52.25;;
33690;SDS011;20026;50.058;18.428;2024-01-06T01:01:02;185.77;;;50.03;;
33690;SDS011;20026;50.058;18.428;2024-01-06T01:03:28;192.88;;;53.05;;
33690;SDS011;20026;50.058;18.428;2024-01-06T01:05:54;199.90;;;51.50;;
33690;SDS011;20026;50.058;18.428;2024-01-06T01:08:20;269.20;;;53.03;;
33690;SDS011;20026;50.058;18.428;2024-01-06T01:10:46;273.23;;;52.00;;
33690;SDS011;20026;50.058;18.428;2024-01-06T01:13:12;333.15;;;79.00;;
33690;SDS011;20026;50.058;18.428;2024-01-06T01:15:38;349.98;;;52.55;;
33690;SDS011;20026;50.058;18.428;2024-01-06T01:18:04;191.55;;;52.78;;
33690;SDS011;20026;50.058;18.428;2024-01-06T01:20:30;224.68;;;47.03;;
33690;SDS011;20026;50.058;18.428;2024-01-06T01:22:56;227.30;;;48.75;;
33690;SDS011;20026;50.058;18.428;2024-01-06T01:25:22;313.80;;;54.53;;
33690;SDS011;20026;50.058;18.428;2024-01-06T01:27:48;172.65;;;40.53;;
33690;SDS011;20026;50.058;18.428;2024-01-06T01:30:14;202.40;;;45.92;;
33690;SDS011;20026;50.058;18.428;2024-01-06T01:32:40;338.02;;;52.47;;
33690;SDS011;20026;50.058;18.428;2024-01-06T01:35:06;214.70;;;54.50;;
33690;SDS011;20026;50.058;18.428;2024-01-06T01:37:32;257.60;;;62.28;;
33690;SDS011;20026;50.058;18.428;2024-01-06T01:39:58;217.75;;;49.95;;
33690;SDS011;20026;50.058;18.428;2024-01-06T01:42:24;214.75;;;65.70;;
33690;SDS011;20026;50.058;18.428;2024-01-06T01:44:50;260.35;;;55.08;;
33690;SDS011;20026;50.058;18.428;2024-01-06T01:47:16;206.57;;;53.17;;
33690;SDS011;20026;50.058;18.428;2024-01-06T01:49:45;191.38;;;50.13;;
33690;SDS011;20026;50.058;18.428;2024-01-06T01:52:12;171.13;;;44.42;;
33690;SDS011;20026;50.058;18.428;2024-01-06T01:54:38;143.18;;;40.28;;
33690;SDS011;20026;50.058;18.428;2024-01-06T01:57:04;275.88;;;80.38;;
33690;SDS011;20026;50.058;18.428;2024-01-06T01:59:30;194.10;;;56.25;;
33690;SDS011;20026;50.058;18.428;2024-01-06T02:01:56;221.30;;;60.08;;
33690;SDS011;20026;50.058;18.428;2024-01-06T02:04:22;197.93;;;49.40;;
33690;SDS011;20026;50.058;18.428;2024-01-06T02:06:48;194.20;;;52.75;;
33690;SDS011;20026;50.058;18.428;2024-01-06T02:09:15;225.85;;;65.68;;
33690;SDS011;20026;50.058;18.428;2024-01-06T02:11:41;313.65;;;85.45;;
33690;SDS011;20026;50.058;18.428;2024-01-06T02:14:07;187.07;;;58.47;;
33690;SDS011;20026;50.058;18.428;2024-01-06T02:16:33;384.83;;;130.18;;
33690;SDS011;20026;50.058;18.428;2024-01-06T02:18:59;266.65;;;79.78;;
33690;SDS011;20026;50.058;18.428;2024-01-06T02:21:25;207.57;;;59.97;;
33690;SDS011;20026;50.058;18.428;2024-01-06T02:23:52;173.20;;;49.78;;
33690;SDS011;20026;50.058;18.428;2024-01-06T02:26:19;161.65;;;52.20;;
33690;SDS011;20026;50.058;18.428;2024-01-06T02:28:45;158.40;;;47.67;;
33690;SDS011;20026;50.058;18.428;2024-01-06T02:31:13;228.25;;;71.50;;
33690;SDS011;20026;50.058;18.428;2024-01-06T02:33:39;161.07;;;50.90;;
33690;SDS011;20026;50.058;18.428;2024-01-06T02:36:05;162.88;;;51.90;;
33690;SDS011;20026;50.058;18.428;2024-01-06T02:38:31;151.50;;;48.63;;
33690;SDS011;20026;50.058;18.428;2024-01-06T02:40:57;184.27;;;57.42;;
33690;SDS011;20026;50.058;18.428;2024-01-06T02:43:23;134.88;;;47.15;;
33690;SDS011;20026;50.058;18.428;2024-01-06T02:45:49;149.77;;;48.30;;
33690;SDS011;20026;50.058;18.428;2024-01-06T02:48:15;147.70;;;49.50;;
33690;SDS011;20026;50.058;18.428;2024-01-06T02:50:41;157.95;;;54.58;;
33690;SDS011;20026;50.058;18.428;2024-01-06T02:53:07;283.25;;;106.93;;
33690;SDS011;20026;50.058;18.428;2024-01-06T02:55:34;156.07;;;57.17;;
33690;SDS011;20026;50.058;18.428;2024-01-06T02:58:00;120.82;;;43.92;;
33690;SDS011;20026;50.058;18.428;2024-01-06T03:00:26;150.10;;;55.55;;
33690;SDS011;20026;50.058;18.428;2024-01-06T03:02:52;137.55;;;45.45;;
33690;SDS011;20026;50.058;18.428;2024-01-06T03:05:18;151.75;;;51.97;;
33690;SDS011;20026;50.058;18.428;2024-01-06T03:07:44;141.05;;;49.60;;
33690;SDS011;20026;50.058;18.428;2024-01-06T03:10:10;130.38;;;46.22;;
33690;SDS011;20026;50.058;18.428;2024-01-06T03:12:36;142.00;;;50.33;;
33690;SDS011;20026;50.058;18.428;2024-01-06T03:15:02;202.05;;;71.03;;
33690;SDS011;20026;50.058;18.428;2024-01-06T03:17:29;170.45;;;61.65;;
33690;SDS011;20026;50.058;18.428;2024-01-06T03:19:55;198.45;;;69.75;;
33690;SDS011;20026;50.058;18.428;2024-01-06T03:22:21;166.50;;;63.75;;
33690;SDS011;20026;50.058;18.428;2024-01-06T03:24:47;232.63;;;83.68;;
33690;SDS011;20026;50.058;18.428;2024-01-06T03:27:13;183.13;;;63.03;;
33690;SDS011;20026;50.058;18.428;2024-01-06T03:29:39;201.65;;;72.97;;
33690;SDS011;20026;50.058;18.428;2024-01-06T03:32:05;192.10;;;67.82;;
33690;SDS011;20026;50.058;18.428;2024-01-06T03:34:31;310.17;;;118.05;;
33690;SDS011;20026;50.058;18.428;2024-01-06T03:36:58;178.90;;;67.28;;
33690;SDS011;20026;50.058;18.428;2024-01-06T03:39:24;198.48;;;77.70;;
33690;SDS011;20026;50.058;18.428;2024-01-06T03:41:50;200.98;;;75.13;;
33690;SDS011;20026;50.058;18.428;2024-01-06T03:44:16;196.07;;;81.13;;
33690;SDS011;20026;50.058;18.428;2024-01-06T03:46:42;244.45;;;97.20;;
33690;SDS011;20026;50.058;18.428;2024-01-06T03:49:07;207.98;;;84.70;;
33690;SDS011;20026;50.058;18.428;2024-01-06T03:51:33;188.85;;;76.93;;
33690;SDS011;20026;50.058;18.428;2024-01-06T03:54:00;197.38;;;79.60;;
33690;SDS011;20026;50.058;18.428;2024-01-06T03:56:26;193.48;;;77.40;;
33690;SDS011;20026;50.058;18.428;2024-01-06T03:58:52;179.38;;;70.05;;
33690;SDS011;20026;50.058;18.428;2024-01-06T04:01:18;183.18;;;73.85;;
33690;SDS011;20026;50.058;18.428;2024-01-06T04:03:44;161.50;;;61.70;;
33690;SDS011;20026;50.058;18.428;2024-01-06T04:06:10;174.07;;;68.43;;
33690;SDS011;20026;50.058;18.428;2024-01-06T04:08:36;173.82;;;66.80;;
33690;SDS011;20026;50.058;18.428;2024-01-06T04:11:02;140.60;;;54.33;;
33690;SDS011;20026;50.058;18.428;2024-01-06T04:13:28;206.32;;;76.55;;
33690;SDS011;20026;50.058;18.428;2024-01-06T04:15:54;141.73;;;55.83;;
33690;SDS011;20026;50.058;18.428;2024-01-06T04:18:20;154.80;;;59.03;;
33690;SDS011;20026;50.058;18.428;2024-01-06T04:20:46;153.18;;;59.80;;
33690;SDS011;20026;50.058;18.428;2024-01-06T04:23:12;136.90;;;54.90;;
33690;SDS011;20026;50.058;18.428;2024-01-06T04:25:38;145.60;;;53.92;;
33690;SDS011;20026;50.058;18.428;2024-01-06T04:28:04;132.07;;;58.50;;
33690;SDS011;20026;50.058;18.428;2024-01-06T04:30:30;142.32;;;57.00;;
33690;SDS011;20026;50.058;18.428;2024-01-06T04:32:56;141.82;;;62.25;;
33690;SDS011;20026;50.058;18.428;2024-01-06T04:35:22;149.50;;;63.13;;
33690;SDS011;20026;50.058;18.428;2024-01-06T04:37:48;157.50;;;65.47;;
33690;SDS011;20026;50.058;18.428;2024-01-06T04:40:14;200.40;;;82.15;;
33690;SDS011;20026;50.058;18.428;2024-01-06T04:42:40;154.48;;;63.80;;
33690;SDS011;20026;50.058;18.428;2024-01-06T04:45:06;144.38;;;63.45;;
33690;SDS011;20026;50.058;18.428;2024-01-06T04:47:33;127.22;;;55.63;;
33690;SDS011;20026;50.058;18.428;2024-01-06T04:49:59;138.40;;;63.63;;
33690;SDS011;20026;50.058;18.428;2024-01-06T04:52:25;126.05;;;56.03;;
33690;SDS011;20026;50.058;18.428;2024-01-06T04:54:51;107.85;;;47.15;;
33690;SDS011;20026;50.058;18.428;2024-01-06T04:57:17;115.93;;;50.60;;
33690;SDS011;20026;50.058;18.428;2024-01-06T04:59:44;105.57;;;44.40;;
33690;SDS011;20026;50.058;18.428;2024-01-06T05:02:10;112.22;;;48.65;;
33690;SDS011;20026;50.058;18.428;2024-01-06T05:04:36;110.97;;;44.50;;
33690;SDS011;20026;50.058;18.428;2024-01-06T05:07:02;106.97;;;44.95;;
33690;SDS011;20026;50.058;18.428;2024-01-06T05:09:28;95.18;;;41.70;;
33690;SDS011;20026;50.058;18.428;2024-01-06T05:11:54;107.10;;;45.08;;
33690;SDS011;20026;50.058;18.428;2024-01-06T05:14:20;119.40;;;53.33;;
33690;SDS011;20026;50.058;18.428;2024-01-06T05:16:46;109.75;;;44.70;;
33690;SDS011;20026;50.058;18.428;2024-01-06T05:19:12;138.57;;;63.58;;
33690;SDS011;20026;50.058;18.428;2024-01-06T05:21:44;105.97;;;46.58;;
33690;SDS011;20026;50.058;18.428;2024-01-06T05:24:10;112.82;;;46.67;;
33690;SDS011;20026;50.058;18.428;2024-01-06T05:26:36;104.70;;;46.08;;
33690;SDS011;20026;50.058;18.428;2024-01-06T05:29:02;97.55;;;43.95;;
33690;SDS011;20026;50.058;18.428;2024-01-06T05:31:28;106.47;;;44.50;;
33690;SDS011;20026;50.058;18.428;2024-01-06T05:33:54;105.15;;;44.95;;
33690;SDS011;20026;50.058;18.428;2024-01-06T05:36:20;110.07;;;47.08;;
33690;SDS011;20026;50.058;18.428;2024-01-06T05:38:46;105.28;;;44.03;;
33690;SDS011;20026;50.058;18.428;2024-01-06T05:41:12;119.05;;;51.88;;
33690;SDS011;20026;50.058;18.428;2024-01-06T05:43:38;119.18;;;53.42;;
33690;SDS011;20026;50.058;18.428;2024-01-06T05:46:04;132.25;;;59.05;;
33690;SDS011;20026;50.058;18.428;2024-01-06T05:48:30;131.55;;;56.92;;
33690;SDS011;20026;50.058;18.428;2024-01-06T05:50:56;128.57;;;57.17;;
33690;SDS011;20026;50.058;18.428;2024-01-06T05:53:22;155.13;;;64.13;;
33690;SDS011;20026;50.058;18.428;2024-01-06T05:55:48;163.05;;;72.75;;
33690;SDS011;20026;50.058;18.428;2024-01-06T05:58:14;156.38;;;71.93;;
33690;SDS011;20026;50.058;18.428;2024-01-06T06:00:40;161.52;;;70.18;;
33690;SDS011;20026;50.058;18.428;2024-01-06T06:03:06;150.50;;;65.45;;
33690;SDS011;20026;50.058;18.428;2024-01-06T06:05:32;222.55;;;82.05;;
33690;SDS011;20026;50.058;18.428;2024-01-06T06:07:58;815.08;;;256.10;;
33690;SDS011;20026;50.058;18.428;2024-01-06T06:10:24;372.48;;;120.50;;
33690;SDS011;20026;50.058;18.428;2024-01-06T06:13:05;469.27;;;143.02;;
33690;SDS011;20026;50.058;18.428;2024-01-06T06:15:31;849.83;;;263.60;;
33690;SDS011;20026;50.058;18.428;2024-01-06T06:17:57;500.20;;;159.32;;
33690;SDS011;20026;50.058;18.428;2024-01-06T06:20:26;181.20;;;80.40;;
33690;SDS011;20026;50.058;18.428;2024-01-06T06:22:52;234.68;;;90.57;;
33690;SDS011;20026;50.058;18.428;2024-01-06T06:25:18;195.40;;;82.22;;
33690;SDS011;20026;50.058;18.428;2024-01-06T06:27:44;251.07;;;93.97;;
33690;SDS011;20026;50.058;18.428;2024-01-06T06:30:11;479.52;;;154.65;;
33690;SDS011;20026;50.058;18.428;2024-01-06T06:32:37;495.92;;;157.43;;
33690;SDS011;20026;50.058;18.428;2024-01-06T06:35:03;459.23;;;140.40;;
33690;SDS011;20026;50.058;18.428;2024-01-06T06:37:29;554.17;;;161.52;;
33690;SDS011;20026;50.058;18.428;2024-01-06T06:39:57;186.85;;;69.95;;
33690;SDS011;20026;50.058;18.428;2024-01-06T06:42:23;217.98;;;74.43;;
33690;SDS011;20026;50.058;18.428;2024-01-06T06:44:49;367.02;;;106.07;;
33690;SDS011;20026;50.058;18.428;2024-01-06T06:47:15;348.83;;;103.05;;
33690;SDS011;20026;50.058;18.428;2024-01-06T06:49:41;519.03;;;146.60;;
33690;SDS011;20026;50.058;18.428;2024-01-06T06:52:07;1177.53;;;354.02;;
33690;SDS011;20026;50.058;18.428;2024-01-06T06:54:33;358.75;;;105.32;;
33690;SDS011;20026;50.058;18.428;2024-01-06T06:56:59;355.30;;;103.65;;
33690;SDS011;20026;50.058;18.428;2024-01-06T06:59:25;304.25;;;94.47;;
33690;SDS011;20026;50.058;18.428;2024-01-06T07:01:51;390.08;;;114.60;;
33690;SDS011;20026;50.058;18.428;2024-01-06T07:04:17;352.17;;;105.10;;
33690;SDS011;20026;50.058;18.428;2024-01-06T07:06:43;386.90;;;113.72;;
33690;SDS011;20026;50.058;18.428;2024-01-06T07:09:09;200.18;;;72.45;;
33690;SDS011;20026;50.058;18.428;2024-01-06T07:11:35;429.05;;;130.10;;
33690;SDS011;20026;50.058;18.428;2024-01-06T07:14:01;258.17;;;92.72;;
33690;SDS011;20026;50.058;18.428;2024-01-06T07:16:27;235.63;;;85.30;;
33690;SDS011;20026;50.058;18.428;2024-01-06T07:18:53;241.68;;;93.63;;
33690;SDS011;20026;50.058;18.428;2024-01-06T07:21:19;298.98;;;117.68;;
33690;SDS011;20026;50.058;18.428;2024-01-06T07:23:45;296.50;;;113.97;;
33690;SDS011;20026;50.058;18.428;2024-01-06T07:26:11;280.38;;;105.63;;
33690;SDS011;20026;50.058;18.428;2024-01-06T07:28:37;272.25;;;106.03;;
33690;SDS011;20026;50.058;18.428;2024-01-06T07:31:03;265.40;;;107.18;;
33690;SDS011;20026;50.058;18.428;2024-01-06T07:33:29;249.00;;;98.65;;
33690;SDS011;20026;50.058;18.428;2024-01-06T07:35:55;239.35;;;96.75;;
33690;SDS011;20026;50.058;18.428;2024-01-06T07:38:21;219.95;;;82.28;;
33690;SDS011;20026;50.058;18.428;2024-01-06T07:40:47;191.27;;;76.43;;
33690;SDS011;20026;50.058;18.428;2024-01-06T07:43:13;195.65;;;78.43;;
33690;SDS011;20026;50.058;18.428;2024-01-06T07:45:40;208.02;;;80.43;;
33690;SDS011;20026;50.058;18.428;2024-01-06T07:48:06;232.85;;;87.32;;
33690;SDS011;20026;50.058;18.428;2024-01-06T07:50:32;246.50;;;94.95;;
33690;SDS011;20026;50.058;18.428;2024-01-06T07:52:58;241.38;;;97.10;;
33690;SDS011;20026;50.058;18.428;2024-01-06T07:55:24;248.02;;;99.82;;
33690;SDS011;20026;50.058;18.428;2024-01-06T07:57:53;272.23;;;108.67;;
33690;SDS011;20026;50.058;18.428;2024-01-06T08:00:19;275.65;;;111.05;;
33690;SDS011;20026;50.058;18.428;2024-01-06T08:02:46;259.92;;;107.18;;
33690;SDS011;20026;50.058;18.428;2024-01-06T08:05:12;253.20;;;103.22;;
33690;SDS011;20026;50.058;18.428;2024-01-06T08:07:38;253.07;;;102.38;;
33690;SDS011;20026;50.058;18.428;2024-01-06T08:10:04;235.35;;;97.90;;
33690;SDS011;20026;50.058;18.428;2024-01-06T08:12:31;250.48;;;104.78;;
33690;SDS011;20026;50.058;18.428;2024-01-06T08:14:57;259.23;;;106.85;;
33690;SDS011;20026;50.058;18.428;2024-01-06T08:17:23;265.60;;;105.18;;
33690;SDS011;20026;50.058;18.428;2024-01-06T08:19:49;299.42;;;116.32;;
33690;SDS011;20026;50.058;18.428;2024-01-06T08:22:15;320.23;;;126.20;;
33690;SDS011;20026;50.058;18.428;2024-01-06T08:24:41;361.90;;;136.55;;
33690;SDS011;20026;50.058;18.428;2024-01-06T08:27:07;337.85;;;133.32;;
33690;SDS011;20026;50.058;18.428;2024-01-06T08:29:33;311.85;;;121.30;;
33690;SDS011;20026;50.058;18.428;2024-01-06T08:32:00;306.88;;;123.00;;
33690;SDS011;20026;50.058;18.428;2024-01-06T08:34:26;305.92;;;122.43;;
33690;SDS011;20026;50.058;18.428;2024-01-06T08:36:52;318.90;;;126.32;;
33690;SDS011;20026;50.058;18.428;2024-01-06T08:39:18;371.70;;;151.55;;
33690;SDS011;20026;50.058;18.428;2024-01-06T08:41:44;372.30;;;137.65;;
33690;SDS011;20026;50.058;18.428;2024-01-06T08:44:11;348.10;;;130.55;;
33690;SDS011;20026;50.058;18.428;2024-01-06T08:46:37;325.15;;;123.90;;
33690;SDS011;20026;50.058;18.428;2024-01-06T08:49:03;299.35;;;117.72;;
33690;SDS011;20026;50.058;18.428;2024-01-06T08:51:29;318.35;;;118.40;;
33690;SDS011;20026;50.058;18.428;2024-01-06T08:53:56;328.98;;;126.05;;
33690;SDS011;20026;50.058;18.428;2024-01-06T08:56:22;326.67;;;120.85;;
33690;SDS011;20026;50.058;18.428;2024-01-06T08:58:48;323.02;;;121.15;;
33690;SDS011;20026;50.058;18.428;2024-01-06T09:01:14;312.15;;;118.57;;
33690;SDS011;20026;50.058;18.428;2024-01-06T09:03:40;330.98;;;124.07;;
33690;SDS011;20026;50.058;18.428;2024-01-06T09:06:06;312.38;;;118.82;;
33690;SDS011;20026;50.058;18.428;2024-01-06T09:08:32;347.40;;;127.50;;
33690;SDS011;20026;50.058;18.428;2024-01-06T09:10:58;316.70;;;121.43;;
33690;SDS011;20026;50.058;18.428;2024-01-06T09:13:24;329.75;;;121.35;;
33690;SDS011;20026;50.058;18.428;2024-01-06T09:15:50;365.23;;;134.15;;
33690;SDS011;20026;50.058;18.428;2024-01-06T09:18:16;378.83;;;144.13;;
33690;SDS011;20026;50.058;18.428;2024-01-06T09:20:42;358.75;;;137.52;;
33690;SDS011;20026;50.058;18.428;2024-01-06T09:23:08;385.08;;;143.48;;
33690;SDS011;20026;50.058;18.428;2024-01-06T09:25:35;391.98;;;149.65;;
33690;SDS011;20026;50.058;18.428;2024-01-06T09:28:01;364.67;;;135.38;;
33690;SDS011;20026;50.058;18.428;2024-01-06T09:30:27;346.88;;;130.63;;
33690;SDS011;20026;50.058;18.428;2024-01-06T09:32:53;303.65;;;117.97;;
33690;SDS011;20026;50.058;18.428;2024-01-06T09:35:19;320.50;;;122.07;;
33690;SDS011;20026;50.058;18.428;2024-01-06T09:37:45;366.73;;;135.90;;
33690;SDS011;20026;50.058;18.428;2024-01-06T09:40:12;329.13;;;129.75;;
33690;SDS011;20026;50.058;18.428;2024-01-06T09:42:41;342.00;;;130.82;;
33690;SDS011;20026;50.058;18.428;2024-01-06T09:45:07;355.15;;;136.38;;
33690;SDS011;20026;50.058;18.428;2024-01-06T09:47:34;346.48;;;134.70;;
33690;SDS011;20026;50.058;18.428;2024-01-06T09:50:01;346.45;;;136.02;;
33690;SDS011;20026;50.058;18.428;2024-01-06T09:52:29;274.73;;;104.35;;
33690;SDS011;20026;50.058;18.428;2024-01-06T09:54:57;270.67;;;106.70;;
33690;SDS011;20026;50.058;18.428;2024-01-06T09:57:25;275.23;;;106.38;;
33690;SDS011;20026;50.058;18.428;2024-01-06T09:59:51;278.88;;;106.28;;
33690;SDS011;20026;50.058;18.428;2024-01-06T10:02:17;310.90;;;119.60;;
33690;SDS011;20026;50.058;18.428;2024-01-06T10:04:45;236.90;;;91.60;;
33690;SDS011;20026;50.058;18.428;2024-01-06T10:07:11;257.00;;;95.57;;
33690;SDS011;20026;50.058;18.428;2024-01-06T10:09:39;258.13;;;95.97;;
33690;SDS011;20026;50.058;18.428;2024-01-06T10:12:06;272.55;;;101.85;;
33690;SDS011;20026;50.058;18.428;2024-01-06T10:14:32;275.80;;;105.65;;
33690;SDS011;20026;50.058;18.428;2024-01-06T10:16:58;270.02;;;102.70;;
33690;SDS011;20026;50.058;18.428;2024-01-06T10:19:24;293.33;;;106.22;;
33690;SDS011;20026;50.058;18.428;2024-01-06T10:21:50;355.33;;;122.53;;
33690;SDS011;20026;50.058;18.428;2024-01-06T10:24:19;348.88;;;120.53;;
33690;SDS011;20026;50.058;18.428;2024-01-06T10:26:45;326.20;;;115.22;;
33690;SDS011;20026;50.058;18.428;2024-01-06T10:29:15;299.42;;;108.70;;
33690;SDS011;20026;50.058;18.428;2024-01-06T10:31:41;286.98;;;103.35;;
33690;SDS011;20026;50.058;18.428;2024-01-06T10:34:07;275.80;;;106.18;;
33690;SDS011;20026;50.058;18.428;2024-01-06T10:36:33;285.42;;;112.13;;
33690;SDS011;20026;50.058;18.428;2024-01-06T10:38:59;275.60;;;108.05;;
33690;SDS011;20026;50.058;18.428;2024-01-06T10:41:26;232.30;;;94.40;;
33690;SDS011;20026;50.058;18.428;2024-01-06T10:43:54;247.43;;;96.10;;
33690;SDS011;20026;50.058;18.428;2024-01-06T10:46:20;225.88;;;88.97;;
33690;SDS011;20026;50.058;18.428;2024-01-06T10:48:48;200.02;;;81.57;;
33690;SDS011;20026;50.058;18.428;2024-01-06T10:51:15;211.48;;;86.15;;
33690;SDS011;20026;50.058;18.428;2024-01-06T10:53:41;186.98;;;73.95;;
33690;SDS011;20026;50.058;18.428;2024-01-06T10:56:08;206.60;;;78.10;;
33690;SDS011;20026;50.058;18.428;2024-01-06T10:58:37;180.80;;;69.72;;
33690;SDS011;20026;50.058;18.428;2024-01-06T11:01:13;195.60;;;74.45;;
33690;SDS011;20026;50.058;18.428;2024-01-06T11:03:40;176.80;;;66.22;;
33690;SDS011;20026;50.058;18.428;2024-01-06T11:06:06;182.65;;;70.22;;
33690;SDS011;20026;50.058;18.428;2024-01-06T11:11:02;173.57;;;67.93;;
33690;SDS011;20026;50.058;18.428;2024-01-06T11:13:28;178.80;;;73.53;;
33690;SDS011;20026;50.058;18.428;2024-01-06T11:15:54;171.73;;;72.47;;
33690;SDS011;20026;50.058;18.428;2024-01-06T11:23:42;149.43;;;64.93;;
33690;SDS011;20026;50.058;18.428;2024-01-06T11:26:09;146.10;;;64.18;;
33690;SDS011;20026;50.058;18.428;2024-01-06T11:28:48;146.82;;;64.03;;
33690;SDS011;20026;50.058;18.428;2024-01-06T11:31:17;145.50;;;63.20;;
33690;SDS011;20026;50.058;18.428;2024-01-06T11:33:44;145.55;;;62.92;;
33690;SDS011;20026;50.058;18.428;2024-01-06T11:36:14;170.65;;;71.35;;
33690;SDS011;20026;50.058;18.428;2024-01-06T11:38:40;177.55;;;78.93;;
33690;SDS011;20026;50.058;18.428;2024-01-06T11:41:07;177.32;;;79.47;;
33690;SDS011;20026;50.058;18.428;2024-01-06T11:43:34;151.43;;;61.83;;
33690;SDS011;20026;50.058;18.428;2024-01-06T11:46:03;162.35;;;69.70;;
33690;SDS011;20026;50.058;18.428;2024-01-06T11:48:31;133.47;;;56.33;;
33690;SDS011;20026;50.058;18.428;2024-01-06T11:51:07;181.68;;;77.20;;
33690;SDS011;20026;50.058;18.428;2024-01-06T11:53:33;169.95;;;73.72;;
33690;SDS011;20026;50.058;18.428;2024-01-06T11:55:59;173.00;;;73.32;;
33690;SDS011;20026;50.058;18.428;2024-01-06T11:58:25;170.95;;;72.68;;
33690;SDS011;20026;50.058;18.428;2024-01-06T12:00:55;164.50;;;70.97;;
33690;SDS011;20026;50.058;18.428;2024-01-06T12:03:22;168.02;;;70.97;;
33690;SDS011;20026;50.058;18.428;2024-01-06T12:06:09;167.25;;;70.30;;
33690;SDS011;20026;50.058;18.428;2024-01-06T12:08:35;167.88;;;73.18;;
33690;SDS011;20026;50.058;18.428;2024-01-06T12:11:01;180.55;;;76.30;;
33690;SDS011;20026;50.058;18.428;2024-01-06T12:13:27;187.13;;;81.10;;
33690;SDS011;20026;50.058;18.428;2024-01-06T12:15:53;192.75;;;78.72;;
33690;SDS011;20026;50.058;18.428;2024-01-06T12:18:21;186.85;;;80.38;;
33690;SDS011;20026;50.058;18.428;2024-01-06T12:20:49;195.30;;;79.80;;
33690;SDS011;20026;50.058;18.428;2024-01-06T12:23:28;201.68;;;83.25;;
33690;SDS011;20026;50.058;18.428;2024-01-06T12:25:57;207.60;;;83.32;;
33690;SDS011;20026;50.058;18.428;2024-01-06T12:28:23;201.80;;;80.85;;
33690;SDS011;20026;50.058;18.428;2024-01-06T12:30:49;177.43;;;74.28;;
33690;SDS011;20026;50.058;18.428;2024-01-06T12:33:15;183.43;;;72.78;;
33690;SDS011;20026;50.058;18.428;2024-01-06T12:35:41;197.68;;;79.50;;
33690;SDS011;20026;50.058;18.428;2024-01-06T12:38:08;203.40;;;80.70;;
33690;SDS011;20026;50.058;18.428;2024-01-06T12:40:35;225.77;;;93.00;;
33690;SDS011;20026;50.058;18.428;2024-01-06T12:43:06;237.88;;;93.90;;
33690;SDS011;20026;50.058;18.428;2024-01-06T12:45:32;257.13;;;107.85;;
33690;SDS011;20026;50.058;18.428;2024-01-06T12:47:58;239.73;;;93.10;;
33690;SDS011;20026;50.058;18.428;2024-01-06T12:50:24;211.90;;;81.32;;
33690;SDS011;20026;50.058;18.428;2024-01-06T12:52:50;228.68;;;94.45;;
33690;SDS011;20026;50.058;18.428;2024-01-06T12:55:16;231.48;;;92.30;;
33690;SDS011;20026;50.058;18.428;2024-01-06T12:57:42;235.02;;;91.78;;
33690;SDS011;20026;50.058;18.428;2024-01-06T13:00:08;224.35;;;84.63;;
33690;SDS011;20026;50.058;18.428;2024-01-06T13:02:36;249.13;;;91.47;;
33690;SDS011;20026;50.058;18.428;2024-01-06T13:05:03;257.35;;;95.65;;
33690;SDS011;20026;50.058;18.428;2024-01-06T13:07:29;247.75;;;89.07;;
33690;SDS011;20026;50.058;18.428;2024-01-06T13:09:55;247.00;;;87.25;;
33690;SDS011;20026;50.058;18.428;2024-01-06T13:12:21;252.27;;;89.28;;
33690;SDS011;20026;50.058;18.428;2024-01-06T13:14:49;246.60;;;88.95;;
33690;SDS011;20026;50.058;18.428;2024-01-06T13:17:15;234.25;;;86.50;;
33690;SDS011;20026;50.058;18.428;2024-01-06T13:19:41;264.45;;;93.38;;
33690;SDS011;20026;50.058;18.428;2024-01-06T13:22:08;250.07;;;91.45;;
33690;SDS011;20026;50.058;18.428;2024-01-06T13:24:46;244.25;;;83.20;;
33690;SDS011;20026;50.058;18.428;2024-01-06T13:27:16;252.73;;;86.32;;
33690;SDS011;20026;50.058;18.428;2024-01-06T13:29:43;246.77;;;84.70;;
33690;SDS011;20026;50.058;18.428;2024-01-06T13:32:10;265.60;;;88.38;;
33690;SDS011;20026;50.058;18.428;2024-01-06T13:34:39;228.80;;;79.67;;
33690;SDS011;20026;50.058;18.428;2024-01-06T13:37:05;213.05;;;75.82;;
33690;SDS011;20026;50.058;18.428;2024-01-06T13:39:32;255.95;;;85.72;;
33690;SDS011;20026;50.058;18.428;2024-01-06T13:41:59;246.10;;;86.50;;
33690;SDS011;20026;50.058;18.428;2024-01-06T13:44:29;239.07;;;83.15;;
33690;SDS011;20026;50.058;18.428;2024-01-06T13:46:56;239.68;;;82.90;;
33690;SDS011;20026;50.058;18.428;2024-01-06T13:49:25;207.63;;;72.30;;
33690;SDS011;20026;50.058;18.428;2024-01-06T13:51:53;230.95;;;81.00;;
33690;SDS011;20026;50.058;18.428;2024-01-06T13:54:19;216.85;;;74.70;;
33690;SDS011;20026;50.058;18.428;2024-01-06T13:56:46;221.63;;;77.45;;